createdAt,value
2019-03-24T00:00:01.594Z,6.40
2019-03-24T00:02:31.554Z,6.40
2019-03-24T00:04:59.537Z,6.40
2019-03-24T00:07:27.319Z,6.40
2019-03-24T00:09:55.186Z,6.30
2019-03-24T00:12:23.176Z,6.30
2019-03-24T00:14:52.156Z,6.30
2019-03-24T00:17:20.161Z,6.20
2019-03-24T00:19:48.141Z,6.20
2019-03-24T00:22:16.358Z,6.20
2019-03-24T00:24:44.999Z,6.20
2019-03-24T00:27:13.410Z,6.20
2019-03-24T00:29:41.389Z,6.10
2019-03-24T00:32:09.411Z,6.10
2019-03-24T00:34:37.298Z,6.10
2019-03-24T00:37:05.395Z,6.10
2019-03-24T00:39:33.272Z,6.10
2019-03-24T00:42:01.318Z,6.00
2019-03-24T00:44:29.199Z,6.00
2019-03-24T00:46:57.214Z,6.00
2019-03-24T00:49:25.143Z,5.90
2019-03-24T00:51:53.176Z,5.90
2019-03-24T00:54:21.100Z,5.90
2019-03-24T00:56:49.119Z,5.80
2019-03-24T00:59:17.100Z,5.80
2019-03-24T01:01:45.101Z,5.80
2019-03-24T01:04:13.100Z,5.70
2019-03-24T01:06:40.907Z,5.70
2019-03-24T01:09:09.299Z,5.60
2019-03-24T01:11:37.331Z,5.60
2019-03-24T01:14:05.737Z,5.60
2019-03-24T01:16:33.661Z,5.60
2019-03-24T01:19:01.675Z,5.50
2019-03-24T01:21:29.601Z,5.50
2019-03-24T01:23:57.539Z,5.50
2019-03-24T01:26:25.462Z,5.50
2019-03-24T01:28:53.709Z,5.40
2019-03-24T01:31:21.940Z,5.40
2019-03-24T01:33:50.031Z,5.40
2019-03-24T01:36:18.159Z,5.40
2019-03-24T01:38:46.192Z,5.30
2019-03-24T01:41:14.411Z,5.30
2019-03-24T01:43:42.447Z,5.30
2019-03-24T01:46:10.682Z,5.30
2019-03-24T01:48:38.882Z,5.20
2019-03-24T01:51:07.020Z,5.20
2019-03-24T01:53:35.035Z,5.20
2019-03-24T01:56:04.290Z,5.20
2019-03-24T01:58:33.518Z,5.10
2019-03-24T02:01:01.627Z,5.10
2019-03-24T02:03:29.836Z,5.10
2019-03-24T02:05:58.400Z,5.00
2019-03-24T02:08:26.515Z,5.10
2019-03-24T02:10:54.724Z,5.10
2019-03-24T02:13:22.781Z,5.00
2019-03-24T02:15:51.008Z,5.10
2019-03-24T02:18:19.072Z,5.10
2019-03-24T02:20:47.273Z,5.00
2019-03-24T02:23:15.500Z,5.00
2019-03-24T02:25:43.564Z,5.00
2019-03-24T02:28:11.882Z,5.00
2019-03-24T02:30:39.969Z,5.00
2019-03-24T02:33:08.051Z,5.00
2019-03-24T02:35:36.711Z,4.90
2019-03-24T02:38:05.054Z,4.80
2019-03-24T02:40:33.312Z,4.90
2019-03-24T02:43:02.011Z,4.80
2019-03-24T02:45:30.265Z,4.80
2019-03-24T02:47:58.450Z,4.80
2019-03-24T02:50:26.896Z,4.80
2019-03-24T02:52:55.228Z,4.70
2019-03-24T02:55:23.811Z,4.70
2019-03-24T02:57:52.280Z,4.70
2019-03-24T03:00:20.497Z,4.70
2019-03-24T03:02:48.680Z,4.70
2019-03-24T03:05:17.018Z,4.70
2019-03-24T03:07:45.290Z,4.70
2019-03-24T03:10:13.655Z,4.70
2019-03-24T03:12:41.729Z,4.70
2019-03-24T03:15:11.220Z,4.70
2019-03-24T03:17:39.309Z,4.60
2019-03-24T03:20:08.706Z,4.70
2019-03-24T03:22:36.876Z,4.60
2019-03-24T03:25:05.375Z,4.60
2019-03-24T03:27:33.451Z,4.60
2019-03-24T03:30:01.557Z,4.50
2019-03-24T03:32:29.764Z,4.50
2019-03-24T03:34:58.905Z,4.50
2019-03-24T03:37:26.966Z,4.50
2019-03-24T03:39:57.954Z,4.40
2019-03-24T03:42:24.987Z,4.30
2019-03-24T03:44:53.041Z,4.30
2019-03-24T03:47:21.285Z,4.30
2019-03-24T03:49:49.468Z,4.30
2019-03-24T03:52:18.849Z,4.20
2019-03-24T03:54:46.917Z,4.20
2019-03-24T03:57:14.993Z,4.20
2019-03-24T03:59:43.182Z,4.20
2019-03-24T04:02:11.331Z,4.10
2019-03-24T04:04:39.408Z,4.10
2019-03-24T04:07:07.449Z,4.10
2019-03-24T04:09:35.522Z,4.00
2019-03-24T04:12:03.581Z,4.10
2019-03-24T04:14:31.640Z,4.00
2019-03-24T04:17:07.223Z,4.00
2019-03-24T04:19:29.789Z,4.00
2019-03-24T04:21:57.847Z,3.90
2019-03-24T04:24:26.569Z,3.90
2019-03-24T04:26:55.719Z,3.90
2019-03-24T04:29:23.870Z,3.90
2019-03-24T04:31:51.933Z,3.80
2019-03-24T04:34:20.002Z,3.80
2019-03-24T04:36:48.078Z,3.80
2019-03-24T04:39:16.232Z,3.80
2019-03-24T04:41:44.316Z,3.70
2019-03-24T04:44:12.358Z,3.70
2019-03-24T04:46:41.382Z,3.70
2019-03-24T04:49:09.548Z,3.70
2019-03-24T04:51:37.654Z,3.70
2019-03-24T04:54:05.743Z,3.70
2019-03-24T04:56:33.902Z,3.70
2019-03-24T04:59:02.091Z,3.70
2019-03-24T05:01:30.152Z,3.70
2019-03-24T05:03:58.261Z,3.70
2019-03-24T05:06:26.993Z,3.70
2019-03-24T05:08:55.128Z,3.60
2019-03-24T05:11:23.153Z,3.60
2019-03-24T05:13:51.219Z,3.60
2019-03-24T05:16:19.291Z,3.60
2019-03-24T05:18:47.361Z,3.60
2019-03-24T05:21:15.468Z,3.60
2019-03-24T05:23:46.025Z,3.50
2019-03-24T05:26:13.819Z,3.50
2019-03-24T05:28:41.948Z,3.50
2019-03-24T05:31:10.002Z,3.50
2019-03-24T05:33:38.048Z,3.40
2019-03-24T05:36:06.156Z,3.50
2019-03-24T05:38:34.312Z,3.50
2019-03-24T05:41:02.352Z,3.50
2019-03-24T05:43:30.412Z,3.50
2019-03-24T05:45:58.555Z,3.50
2019-03-24T05:48:26.608Z,3.50
2019-03-24T05:50:54.643Z,3.50
2019-03-24T05:53:22.706Z,3.50
2019-03-24T05:55:50.765Z,3.50
2019-03-24T05:58:18.861Z,3.60
2019-03-24T06:00:46.912Z,3.60
2019-03-24T06:03:14.956Z,3.70
2019-03-24T06:05:43.146Z,3.70
2019-03-24T06:08:11.192Z,3.70
2019-03-24T06:10:40.578Z,3.70
2019-03-24T06:13:08.657Z,3.80
2019-03-24T06:15:36.708Z,3.80
2019-03-24T06:18:04.807Z,3.90
2019-03-24T06:20:32.859Z,3.90
2019-03-24T06:23:00.997Z,4.00
2019-03-24T06:25:29.094Z,4.00
2019-03-24T06:27:57.136Z,4.10
2019-03-24T06:30:25.297Z,4.10
2019-03-24T06:32:53.401Z,4.20
2019-03-24T06:35:21.551Z,4.20
2019-03-24T06:37:49.620Z,4.30
2019-03-24T06:40:19.736Z,4.40
2019-03-24T06:42:47.984Z,4.30
2019-03-24T06:45:16.074Z,4.40
2019-03-24T06:47:44.105Z,4.50
2019-03-24T06:50:13.772Z,4.50
2019-03-24T06:52:41.876Z,4.60
2019-03-24T06:55:10.073Z,4.60
2019-03-24T06:57:38.159Z,4.70
2019-03-24T07:00:07.221Z,4.70
2019-03-24T07:02:35.312Z,4.80
2019-03-24T07:05:03.938Z,4.90
2019-03-24T07:07:32.028Z,4.90
2019-03-24T07:10:00.172Z,5.00
2019-03-24T07:12:28.461Z,5.10
2019-03-24T07:14:57.039Z,5.20
2019-03-24T07:17:25.373Z,5.20
2019-03-24T07:19:53.442Z,5.30
2019-03-24T07:22:21.500Z,5.40
2019-03-24T07:24:49.825Z,5.50
2019-03-24T07:27:19.392Z,5.60
2019-03-24T07:29:47.984Z,5.70
2019-03-24T07:32:17.603Z,5.80
2019-03-24T07:34:47.348Z,5.90
2019-03-24T07:37:16.479Z,6.00
2019-03-24T07:39:45.340Z,6.10
2019-03-24T07:42:15.345Z,6.20
2019-03-24T07:44:45.288Z,6.30
2019-03-24T07:47:13.648Z,6.40
2019-03-24T07:49:42.147Z,6.50
2019-03-24T07:52:10.643Z,6.60
2019-03-24T07:54:39.680Z,6.70
2019-03-24T07:57:09.904Z,6.80
2019-03-24T07:59:38.633Z,6.90
2019-03-24T08:02:07.299Z,7.00
2019-03-24T08:04:36.533Z,7.00
2019-03-24T08:07:05.769Z,7.10
2019-03-24T08:09:34.078Z,7.20
2019-03-24T08:12:02.437Z,7.30
2019-03-24T08:14:30.572Z,7.40
2019-03-24T08:16:58.668Z,7.50
2019-03-24T08:19:26.831Z,7.60
2019-03-24T08:21:54.989Z,7.70
2019-03-24T08:24:23.225Z,7.70
2019-03-24T08:26:51.418Z,7.80
2019-03-24T08:29:19.516Z,7.90
2019-03-24T08:31:47.588Z,8.10
2019-03-24T08:34:16.764Z,8.10
2019-03-24T08:36:45.037Z,8.20
2019-03-24T08:39:13.236Z,8.40
2019-03-24T08:41:41.256Z,8.50
2019-03-24T08:44:09.288Z,8.50
2019-03-24T08:46:37.388Z,8.60
2019-03-24T08:49:05.607Z,8.70
2019-03-24T08:51:33.897Z,8.80
2019-03-24T08:54:02.116Z,8.90
2019-03-24T08:56:31.391Z,9.00
2019-03-24T08:58:59.741Z,9.10
2019-03-24T09:01:27.814Z,9.10
2019-03-24T09:03:56.946Z,9.20
2019-03-24T09:06:26.016Z,9.20
2019-03-24T09:08:54.059Z,9.30
2019-03-24T09:11:31.221Z,9.40
2019-03-24T09:13:54.285Z,9.50
2019-03-24T09:17:07.863Z,9.60
2019-03-24T09:19:40.800Z,9.60
2019-03-24T09:22:09.095Z,9.80
2019-03-24T09:24:37.535Z,9.90
2019-03-24T09:27:05.722Z,9.90
2019-03-24T09:29:35.690Z,10.00
2019-03-24T09:32:03.956Z,10.10
2019-03-24T09:34:32.371Z,10.10
2019-03-24T09:37:00.622Z,10.20
2019-03-24T09:39:28.775Z,10.30
2019-03-24T09:41:57.346Z,10.40
2019-03-24T09:44:26.631Z,10.40
2019-03-24T09:46:54.719Z,10.50
2019-03-24T09:49:23.032Z,10.60
2019-03-24T09:51:51.255Z,10.60
2019-03-24T09:54:19.624Z,10.70
2019-03-24T09:56:49.133Z,10.70
2019-03-24T09:59:17.611Z,10.80
2019-03-24T10:01:45.684Z,10.90
2019-03-24T10:04:13.866Z,10.90
2019-03-24T10:06:42.068Z,10.90
2019-03-24T10:09:10.223Z,11.00
2019-03-24T10:11:40.688Z,11.00
2019-03-24T10:14:08.765Z,11.00
2019-03-24T10:16:37.710Z,11.10
2019-03-24T10:19:13.473Z,11.20
2019-03-24T10:21:35.779Z,11.20
2019-03-24T10:24:04.469Z,11.30
2019-03-24T10:26:32.896Z,11.30
2019-03-24T10:29:01.004Z,11.40
2019-03-24T10:31:29.633Z,11.50
2019-03-24T10:33:58.342Z,11.60
2019-03-24T10:36:27.272Z,11.70
2019-03-24T10:38:55.375Z,11.80
2019-03-24T10:41:23.646Z,11.80
2019-03-24T10:43:52.080Z,11.90
2019-03-24T10:46:20.661Z,11.90
2019-03-24T10:48:48.728Z,11.90
2019-03-24T10:51:16.851Z,11.90
2019-03-24T10:53:45.016Z,12.00
2019-03-24T10:56:13.069Z,12.10
2019-03-24T10:58:41.117Z,12.20
2019-03-24T11:01:09.251Z,12.20
2019-03-24T11:03:37.318Z,12.20
2019-03-24T11:06:05.468Z,12.20
2019-03-24T11:08:33.676Z,12.30
2019-03-24T11:11:02.645Z,12.40
2019-03-24T11:13:30.707Z,12.40
2019-03-24T11:15:59.681Z,12.40
2019-03-24T11:18:28.023Z,12.40
2019-03-24T11:20:56.174Z,12.50
2019-03-24T11:23:24.223Z,12.50
2019-03-24T11:25:52.308Z,12.60
2019-03-24T11:28:21.472Z,12.60
2019-03-24T11:30:49.516Z,12.60
2019-03-24T11:33:17.633Z,12.60
2019-03-24T11:35:45.627Z,12.60
2019-03-24T11:38:13.656Z,12.60
2019-03-24T11:40:42.120Z,12.70
2019-03-24T11:43:11.899Z,12.60
2019-03-24T11:45:39.977Z,12.60
2019-03-24T11:48:08.434Z,12.70
2019-03-24T11:50:36.437Z,12.80
2019-03-24T11:53:04.537Z,12.80
2019-03-24T11:55:32.619Z,12.80
2019-03-24T11:58:05.747Z,12.70
2019-03-24T12:00:35.456Z,12.70
2019-03-24T12:03:03.597Z,12.70
2019-03-24T12:05:31.857Z,12.70
2019-03-24T12:08:02.077Z,12.70
2019-03-24T12:10:30.133Z,12.80
2019-03-24T12:12:58.694Z,12.80
2019-03-24T12:15:26.701Z,12.80
2019-03-24T12:17:55.209Z,12.90
2019-03-24T12:20:23.205Z,12.90
2019-03-24T12:22:53.277Z,12.80
2019-03-24T12:25:21.472Z,12.90
2019-03-24T12:27:49.532Z,12.90
2019-03-24T12:30:17.593Z,12.90
2019-03-24T12:32:45.654Z,13.00
2019-03-24T12:35:13.708Z,13.00
2019-03-24T12:37:45.398Z,13.00
2019-03-24T12:40:13.427Z,13.10
2019-03-24T12:42:41.400Z,13.00
2019-03-24T12:45:10.833Z,13.10
2019-03-24T12:47:38.974Z,13.10
2019-03-24T12:50:09.311Z,13.10
2019-03-24T12:52:37.547Z,13.10
2019-03-24T12:55:05.814Z,13.10
2019-03-24T12:57:33.830Z,13.20
2019-03-24T13:00:01.803Z,13.20
2019-03-24T13:02:31.605Z,13.20
2019-03-24T13:04:59.604Z,13.30
2019-03-24T13:07:27.625Z,13.20
2019-03-24T13:09:55.778Z,13.20
2019-03-24T13:12:23.823Z,13.30
2019-03-24T13:14:51.850Z,13.30
2019-03-24T13:17:19.682Z,13.30
2019-03-24T13:19:47.574Z,13.40
2019-03-24T13:22:15.616Z,13.30
2019-03-24T13:24:45.487Z,13.40
2019-03-24T13:27:13.485Z,13.40
2019-03-24T13:29:41.264Z,13.40
2019-03-24T13:32:09.157Z,13.40
2019-03-24T13:34:39.214Z,13.50
2019-03-24T13:37:07.099Z,13.50
2019-03-24T13:39:35.451Z,13.50
2019-03-24T13:42:03.868Z,13.50
2019-03-24T13:44:33.054Z,13.50
2019-03-24T13:47:01.010Z,13.60
2019-03-24T13:49:28.881Z,13.50
2019-03-24T13:51:56.798Z,13.60
2019-03-24T13:54:26.282Z,13.60
2019-03-24T13:56:54.212Z,13.60
2019-03-24T13:59:22.309Z,13.50
2019-03-24T14:01:50.194Z,13.50
2019-03-24T14:04:18.598Z,13.50
2019-03-24T14:06:46.491Z,13.40
2019-03-24T14:09:14.495Z,13.50
2019-03-24T14:11:42.524Z,13.40
2019-03-24T14:14:11.027Z,13.40
2019-03-24T14:16:39.093Z,13.40
2019-03-24T14:19:08.277Z,13.40
2019-03-24T14:21:37.604Z,13.30
2019-03-24T14:24:05.882Z,13.40
2019-03-24T14:26:34.110Z,13.40
2019-03-24T14:29:02.309Z,13.40
2019-03-24T14:31:30.352Z,13.40
2019-03-24T14:33:58.280Z,13.40
2019-03-24T14:36:26.480Z,13.40
2019-03-24T14:38:54.691Z,13.40
2019-03-24T14:41:22.817Z,13.40
2019-03-24T14:43:51.049Z,13.40
2019-03-24T14:46:20.457Z,13.40
2019-03-24T14:48:48.587Z,13.40
2019-03-24T14:51:16.524Z,13.40
2019-03-24T14:53:45.314Z,13.40
2019-03-24T14:56:13.618Z,13.40
2019-03-24T14:58:43.636Z,13.40
2019-03-24T15:01:12.804Z,13.40
2019-03-24T15:03:40.922Z,13.30
2019-03-24T15:06:10.486Z,13.30
2019-03-24T15:08:38.538Z,13.30
2019-03-24T15:11:06.888Z,13.30
2019-03-24T15:13:35.717Z,13.20
2019-03-24T15:16:03.804Z,13.10
2019-03-24T15:18:32.479Z,13.10
2019-03-24T15:21:05.682Z,13.10
2019-03-24T15:23:30.449Z,13.10
2019-03-24T15:26:00.299Z,13.10
2019-03-24T15:28:28.613Z,13.10
2019-03-24T15:30:56.559Z,13.10
2019-03-24T15:33:24.572Z,13.10
2019-03-24T15:35:53.114Z,13.10
2019-03-24T15:38:21.201Z,13.10
2019-03-24T15:40:49.543Z,13.10
2019-03-24T15:43:17.829Z,13.10
2019-03-24T15:45:45.809Z,13.10
2019-03-24T15:48:16.461Z,13.10
2019-03-24T15:50:44.462Z,13.10
2019-03-24T15:53:12.461Z,13.10
2019-03-24T15:55:40.589Z,13.00
2019-03-24T15:58:09.626Z,13.00
2019-03-24T16:00:48.295Z,13.00
2019-03-24T16:03:19.220Z,12.90
2019-03-24T16:05:49.334Z,12.90
2019-03-24T16:08:17.315Z,12.90
2019-03-24T16:10:45.361Z,12.90
2019-03-24T16:13:15.011Z,12.80
2019-03-24T16:15:43.031Z,12.80
2019-03-24T16:18:11.223Z,12.80
2019-03-24T16:20:40.155Z,12.80
2019-03-24T16:23:08.343Z,12.70
2019-03-24T16:25:36.346Z,12.70
2019-03-24T16:28:04.278Z,12.70
2019-03-24T16:30:32.363Z,12.70
2019-03-24T16:33:00.560Z,12.70
2019-03-24T16:35:30.477Z,12.60
2019-03-24T16:37:59.262Z,12.60
2019-03-24T16:40:28.213Z,12.50
2019-03-24T16:42:56.097Z,12.50
2019-03-24T16:45:23.946Z,12.40
2019-03-24T16:47:51.954Z,12.40
2019-03-24T16:50:19.991Z,12.30
2019-03-24T16:52:47.926Z,12.30
2019-03-24T16:55:15.948Z,12.30
2019-03-24T16:57:44.026Z,12.30
2019-03-24T17:00:12.247Z,12.20
2019-03-24T17:02:42.278Z,12.20
2019-03-24T17:05:10.552Z,12.10
2019-03-24T17:07:38.497Z,12.10
2019-03-24T17:10:08.508Z,12.00
2019-03-24T17:12:36.559Z,12.00
2019-03-24T17:15:05.323Z,12.00
2019-03-24T17:17:33.793Z,11.90
2019-03-24T17:20:02.965Z,11.90
2019-03-24T17:22:33.860Z,11.80
2019-03-24T17:25:01.900Z,11.80
2019-03-24T17:27:30.009Z,11.70
2019-03-24T17:29:58.010Z,11.70
2019-03-24T17:32:26.012Z,11.60
2019-03-24T17:34:54.097Z,11.60
2019-03-24T17:37:22.404Z,11.60
2019-03-24T17:39:50.764Z,11.50
2019-03-24T17:42:18.879Z,11.50
2019-03-24T17:44:46.788Z,11.40
2019-03-24T17:47:14.809Z,11.40
2019-03-24T17:49:42.989Z,11.30
2019-03-24T17:52:10.938Z,11.30
2019-03-24T17:54:38.984Z,11.30
2019-03-24T17:57:07.278Z,11.30
2019-03-24T17:59:36.459Z,11.20
2019-03-24T18:02:13.954Z,11.20
2019-03-24T18:04:34.614Z,11.10
2019-03-24T18:07:02.510Z,11.10
2019-03-24T18:09:31.271Z,11.10
2019-03-24T18:11:59.144Z,11.00
2019-03-24T18:14:27.091Z,11.00
2019-03-24T18:16:55.066Z,11.00
2019-03-24T18:19:23.034Z,10.90
2019-03-24T18:21:51.078Z,10.90
2019-03-24T18:24:19.101Z,10.90
2019-03-24T18:26:46.998Z,10.90
2019-03-24T18:29:15.104Z,10.80
2019-03-24T18:31:43.140Z,10.80
2019-03-24T18:34:11.210Z,10.70
2019-03-24T18:36:39.211Z,10.70
2019-03-24T18:39:08.698Z,10.70
2019-03-24T18:41:36.792Z,10.70
2019-03-24T18:44:04.738Z,10.60
2019-03-24T18:46:32.780Z,10.60
2019-03-24T18:49:00.816Z,10.60
2019-03-24T18:51:28.675Z,10.50
2019-03-24T18:53:56.588Z,10.50
2019-03-24T18:56:24.783Z,10.50
2019-03-24T18:58:52.805Z,10.50
2019-03-24T19:01:20.765Z,10.50
2019-03-24T19:03:48.513Z,10.50
2019-03-24T19:06:17.152Z,10.50
2019-03-24T19:08:45.235Z,10.50
2019-03-24T19:11:13.498Z,10.40
2019-03-24T19:13:41.447Z,10.40
2019-03-24T19:16:09.483Z,10.40
2019-03-24T19:18:37.341Z,10.40
2019-03-24T19:21:05.371Z,10.40
2019-03-24T19:23:33.978Z,10.30
2019-03-24T19:26:01.935Z,10.30
2019-03-24T19:28:30.209Z,10.30
2019-03-24T19:30:58.271Z,10.30
2019-03-24T19:33:26.607Z,10.30
2019-03-24T19:35:54.625Z,10.30
2019-03-24T19:38:23.196Z,10.30
2019-03-24T19:40:50.990Z,10.20
2019-03-24T19:43:18.862Z,10.20
2019-03-24T19:45:46.772Z,10.20
2019-03-24T19:48:14.803Z,10.20
2019-03-24T19:50:42.869Z,10.20
2019-03-24T19:53:11.713Z,10.10
2019-03-24T19:55:40.255Z,10.10
2019-03-24T19:58:08.255Z,10.10
2019-03-24T20:00:38.766Z,10.10
2019-03-24T20:03:09.548Z,10.10
2019-03-24T20:05:38.081Z,10.00
2019-03-24T20:08:06.189Z,10.00
2019-03-24T20:10:34.584Z,10.00
2019-03-24T20:13:02.706Z,9.90
2019-03-24T20:15:30.791Z,9.90
2019-03-24T20:17:58.896Z,9.90
2019-03-24T20:20:28.277Z,9.80
2019-03-24T20:22:58.320Z,9.80
2019-03-24T20:25:26.302Z,9.80
2019-03-24T20:27:54.349Z,9.70
2019-03-24T20:30:22.243Z,9.70
2019-03-24T20:32:50.581Z,9.70
2019-03-24T20:35:19.540Z,9.70
2019-03-24T20:37:47.537Z,9.60
2019-03-24T20:40:16.272Z,9.60
2019-03-24T20:42:44.287Z,9.60
2019-03-24T20:45:13.536Z,9.60
2019-03-24T20:47:41.573Z,9.50
2019-03-24T20:50:12.966Z,9.40
2019-03-24T20:52:40.876Z,9.40
2019-03-24T20:55:11.156Z,9.30
2019-03-24T20:57:39.130Z,9.30
2019-03-24T21:00:08.020Z,9.30
2019-03-24T21:02:38.374Z,9.20
2019-03-24T21:05:07.102Z,9.20
2019-03-24T21:07:35.388Z,9.10
2019-03-24T21:10:04.244Z,9.10
2019-03-24T21:12:32.418Z,9.00
2019-03-24T21:15:00.364Z,9.00
2019-03-24T21:17:28.467Z,8.90
2019-03-24T21:19:56.366Z,8.90
2019-03-24T21:22:24.497Z,8.90
2019-03-24T21:24:52.366Z,8.80
2019-03-24T21:27:20.639Z,8.80
2019-03-24T21:29:48.847Z,8.80
2019-03-24T21:32:17.117Z,8.80
2019-03-24T21:34:45.145Z,8.80
2019-03-24T21:37:13.194Z,8.80
2019-03-24T21:39:41.411Z,8.80
2019-03-24T21:42:09.538Z,8.80
2019-03-24T21:44:37.571Z,8.80
2019-03-24T21:47:05.600Z,8.90
2019-03-24T21:49:33.636Z,8.90
2019-03-24T21:52:01.488Z,8.90
2019-03-24T21:54:29.491Z,8.90
2019-03-24T21:56:57.572Z,8.90
2019-03-24T21:59:25.478Z,8.90
2019-03-24T22:01:53.411Z,8.90
2019-03-24T22:04:22.741Z,8.90
2019-03-24T22:06:51.334Z,8.90
2019-03-24T22:09:19.474Z,8.90
2019-03-24T22:11:47.725Z,8.90
2019-03-24T22:14:15.728Z,8.90
2019-03-24T22:16:43.679Z,8.90
2019-03-24T22:19:12.148Z,8.90
2019-03-24T22:21:42.299Z,8.90
2019-03-24T22:24:10.032Z,8.90
2019-03-24T22:26:40.200Z,8.90
2019-03-24T22:29:09.409Z,9.00
2019-03-24T22:31:37.629Z,8.90
2019-03-24T22:34:05.639Z,8.90
2019-03-24T22:36:35.016Z,8.90
2019-03-24T22:39:04.488Z,8.90
2019-03-24T22:41:32.592Z,8.90
2019-03-24T22:44:00.597Z,8.90
2019-03-24T22:46:28.533Z,8.90
2019-03-24T22:48:56.506Z,8.90
2019-03-24T22:51:24.694Z,8.90
2019-03-24T22:54:02.782Z,8.90
2019-03-24T22:56:22.569Z,8.80
2019-03-24T22:58:50.705Z,8.90
2019-03-24T23:01:18.760Z,8.80
2019-03-24T23:03:46.888Z,8.80
2019-03-24T23:06:14.975Z,8.80
2019-03-24T23:08:42.855Z,8.70
2019-03-24T23:11:10.557Z,8.70
2019-03-24T23:13:38.323Z,8.70
2019-03-24T23:16:06.268Z,8.70
2019-03-24T23:18:34.258Z,8.60
2019-03-24T23:21:02.163Z,8.60
2019-03-24T23:23:29.895Z,8.60
2019-03-24T23:25:57.930Z,8.60
2019-03-24T23:28:25.955Z,8.60
2019-03-24T23:30:55.267Z,8.60
2019-03-24T23:33:23.592Z,8.60
2019-03-24T23:35:51.761Z,8.60
2019-03-24T23:38:19.707Z,8.60
2019-03-24T23:40:47.434Z,8.60
2019-03-24T23:43:15.306Z,8.60
2019-03-24T23:45:43.407Z,8.50
2019-03-24T23:48:11.293Z,8.50
2019-03-24T23:50:39.665Z,8.50
2019-03-24T23:53:07.633Z,8.50
2019-03-24T23:55:35.510Z,8.50
2019-03-24T23:58:03.556Z,8.50
